メインページ
METAR-TAF:

METAR-TAF

空港 :

香港国際空港

香港, 中華人民共和国

緯度: 22-19N, 経度: 113-55E, 海抜: 9m

現時点の気象観測

当レポートは28分前の14:00(UTC)に作成
南東の風 8kt、からの間で変化する
気温 29°C
湿度 74%
気圧 1004 hPa
視程10km以上
高度2500ftの雲はほとんどない

METAR: VHHH 201400Z 14008KT 100V190 9999 FEW025 29/24 Q1004 NOSIG

時間: 22:28 (14:28 UTC)

予報

当レポートは3時間28分前の11:00(UTC)に作成
予報は20日の 12時(UTC)から 21日の 18時(UTC)まで有効
の風 10kt
視程10km以上
高度2500ftの雲はほとんどない
20日の 21時(UTC)から 21日の 03時(UTC)まで一時的に
北東の風 10kt
21日の 03時(UTC)から 21日の 09時(UTC)まで一時的に
西/北西の風 10kt
21日の 09時(UTC)から 21日の 11時(UTC)まで徐々に
変向風 5kt

TAF: VHHH 201100Z 2012/2118 10010KT 9999 FEW025 TX34/2106Z TN28/2022Z TEMPO 2021/2103 04010KT TEMPO 2103/2109 30010KT BECMG 2109/2111 VRB05KT

4,000以上の空港の気象観測と天気予報(METAR報とTAF報)

利用可能な観測所は地図上に黄色い丸と赤い丸で示す。

丸の上にカーソルを重ねると観測所名を参照できる。

次にクリックすると気象観測と天気予報を参照できる。

マップの切り替え:黒色「×」印の緑ボタンをクリックして拡大、「-」印の緑ボタンをクリックして縮小、緑色の三角印をクリックして隣りの地図に切り替え


METAR-TAF: